Sea Bird — 9V2730 — position and weather

sailwx.info

Track history (hours):
 
Tides and Currents Weather Stations Pressure Air Temp Water Temp Dewpoint Dewpoint Depression Visibility Wind Speed Wind Dir Waves Ship Positions

Sea Bird

Last reported at 2017-Dec-01 23:28 UTC. Time now 2018-Feb-24 06:32 UTC.
Position N 01°18' E 103°20'.
Warning: this ship's position is months out of date.

Length 225 m; draft 9.1 m.

Type: Tanker. MMSI: 564643000.

Date/timePositionNaut miles runAvg speedWind from/ knotsBaromVisibWave heightAir tempDewpointWater temp
2017-Dec-01 23:28N 01°18' E 103°20'1013.9
2017-Dec-01 22:46N 01°13' E 103°28'414.8
2017-Dec-01 22:30N 01°12' E 103°32'815.5
2017-Dec-01 22:00N 01°11' E 103°40'613.0
2017-Dec-01 21:30N 01°09' E 103°46'816.0
2017-Dec-01 21:01N 01°13' E 103°53'815.3
2017-Dec-01 20:30N 01°16' E 104°00'  
2017-Nov-26 01:15N 01°16' E 104°09'312.3
2017-Nov-26 00:58N 01°15' E 104°06'612.0
2017-Nov-26 00:30N 01°14' E 104°00'612.4
2017-Nov-26 00:01N 01°13' E 103°54'5 9.9
2017-Nov-25 23:30N 01°10' E 103°50'4 9.0
2017-Nov-25 23:01N 01°08' E 103°46'5 9.5
2017-Nov-25 22:31N 01°05' E 103°43'5 9.5
2017-Nov-25 22:00N 01°03' E 103°38'612.5
2017-Nov-25 21:30N 01°06' E 103°33'611.1
2017-Nov-25 21:00N 01°10' E 103°36'611.2
2017-Nov-25 20:30N 01°10' E 103°42'1 2.3
2017-Nov-25 20:01N 01°11' E 103°43'0 0.0
2017-Nov-25 19:31N 01°11' E 103°43'0 0.0
2017-Nov-25 18:58N 01°11' E 103°43'0 0.0
2017-Nov-25 18:29N 01°11' E 103°43'0 0.0
2017-Nov-25 17:59N 01°11' E 103°43'0 0.0
2017-Nov-25 17:27N 01°11' E 103°43'0 0.0
2017-Nov-25 16:57N 01°11' E 103°43'0 0.0
2017-Nov-25 16:30N 01°11' E 103°43'0 0.1
2017-Nov-25 16:00N 01°11' E 103°43'0 0.0
2017-Nov-25 15:06N 01°11' E 103°43'0 0.0
2017-Nov-25 14:54N 01°11' E 103°43'0 0.0
2017-Nov-25 14:30N 01°11' E 103°43'0 0.0
2017-Nov-25 13:51N 01°11' E 103°43'0 0.0
2017-Nov-25 13:30N 01°11' E 103°43'0 0.1
2017-Nov-25 13:00N 01°11' E 103°43'0 0.0
2017-Nov-25 12:30N 01°11' E 103°43'0 0.0
2017-Nov-25 11:57N 01°11' E 103°43'0 0.1
2017-Nov-25 11:30N 01°11' E 103°43'0 0.1
2017-Nov-25 10:57N 01°11' E 103°43'0 0.1
2017-Nov-25 10:24N 01°11' E 103°43'0 0.0
2017-Nov-25 10:00N 01°11' E 103°43'0 0.1
2017-Nov-25 09:27N 01°11' E 103°43'0 0.1
2017-Nov-25 08:57N 01°11' E 103°43'0 0.1
2017-Nov-25 08:30N 01°11' E 103°43'4 7.3
2017-Nov-25 08:00N 01°12' E 103°39'3 5.7
2017-Nov-25 07:30N 01°12' E 103°36'2 4.7
2017-Nov-25 07:01N 01°10' E 103°34'2 2.5
2017-Nov-25 06:24N 01°09' E 103°35'0 0.1
2017-Nov-25 05:57N 01°09' E 103°35'0 0.3
2017-Nov-25 05:30N 01°09' E 103°35'0 0.1
2017-Nov-25 05:00N 01°09' E 103°35'0 0.1
2017-Nov-25 04:30N 01°09' E 103°35'0 0.0
2017-Nov-25 03:51N 01°09' E 103°35'0 0.0
2017-Nov-25 03:18N 01°09' E 103°35'0 0.1
2017-Nov-25 02:57N 01°09' E 103°35'0 0.0
2017-Nov-25 02:27N 01°09' E 103°35'0 0.1
2017-Nov-25 01:54N 01°09' E 103°35'0 0.0
2017-Nov-25 01:27N 01°09' E 103°35'0 0.0
2017-Nov-25 00:54N 01°09' E 103°35'0 0.0
2017-Nov-25 00:24N 01°09' E 103°35'0 0.0
2017-Nov-25 00:00N 01°09' E 103°35'0 0.0
2017-Nov-24 23:15N 01°09' E 103°35'0 0.1
2017-Nov-24 22:51N 01°09' E 103°35'0 0.0
2017-Nov-24 22:30N 01°09' E 103°35'0 0.1
2017-Nov-24 22:00N 01°09' E 103°35'0 0.0
2017-Nov-24 21:30N 01°09' E 103°35'0 0.1
2017-Nov-24 20:51N 01°09' E 103°35'0 0.0
2017-Nov-24 20:30N 01°09' E 103°35'0 0.1
2017-Nov-24 19:48N 01°09' E 103°35'0 0.0
2017-Nov-24 19:21N 01°09' E 103°35'0 0.0
2017-Nov-24 18:54N 01°09' E 103°35'0 0.0
2017-Nov-24 18:30N 01°09' E 103°35'0 0.1
2017-Nov-24 17:57N 01°09' E 103°35'0 0.1
2017-Nov-24 17:21N 01°09' E 103°35'0 0.1
2017-Nov-24 16:42N 01°09' E 103°35'0 0.2
2017-Nov-24 16:18N 01°09' E 103°35'0 0.1
2017-Nov-24 16:00N 01°09' E 103°35'0 0.1
2017-Nov-24 15:30N 01°09' E 103°35'0 0.1
2017-Nov-24 15:00N 01°09' E 103°35'0 0.0
2017-Nov-24 14:30N 01°09' E 103°35'0 0.0
2017-Nov-24 13:57N 01°09' E 103°35'0 0.0
2017-Nov-24 13:24N 01°09' E 103°35'0 0.0
2017-Nov-24 12:39N 01°09' E 103°35'0 0.0
2017-Nov-24 12:30N 01°09' E 103°35'0 0.0
2017-Nov-24 11:57N 01°09' E 103°35'0 0.2
2017-Nov-24 11:30N 01°09' E 103°35'2 3.3
2017-Nov-24 11:01N 01°10' E 103°34'2 4.2
2017-Nov-24 10:31N 01°09' E 103°32'5 9.2
2017-Nov-24 10:00N 01°09' E 103°27'611.2
2017-Nov-24 09:30N 01°12' E 103°23'612.7
2017-Nov-24 09:00N 01°17' E 103°18'  
Track history (hours):
 
Tides and Currents Weather Stations Pressure Air Temp Water Temp Dewpoint Dewpoint Depression Visibility Wind Speed Wind Dir Waves Ship Positions

Sea Bird

Last reported at 2017-Dec-01 23:28 UTC. Time now 2018-Feb-24 06:32 UTC.
Position N 01°18' E 103°20'.
Warning: this ship's position is months out of date.

Length 225 m; draft 9.1 m.

Type: Tanker. MMSI: 564643000.

Date/timePositionNaut miles runAvg speedWind from/ knotsBaromVisibWave heightAir tempDewpointWater temp
2017-Dec-01 23:28N 01°18' E 103°20'1013.9
2017-Dec-01 22:46N 01°13' E 103°28'414.8
2017-Dec-01 22:30N 01°12' E 103°32'815.5
2017-Dec-01 22:00N 01°11' E 103°40'613.0
2017-Dec-01 21:30N 01°09' E 103°46'816.0
2017-Dec-01 21:01N 01°13' E 103°53'815.3
2017-Dec-01 20:30N 01°16' E 104°00'  
2017-Nov-26 01:15N 01°16' E 104°09'312.3
2017-Nov-26 00:58N 01°15' E 104°06'612.0
2017-Nov-26 00:30N 01°14' E 104°00'612.4
2017-Nov-26 00:01N 01°13' E 103°54'5 9.9
2017-Nov-25 23:30N 01°10' E 103°50'4 9.0
2017-Nov-25 23:01N 01°08' E 103°46'5 9.5
2017-Nov-25 22:31N 01°05' E 103°43'5 9.5
2017-Nov-25 22:00N 01°03' E 103°38'612.5
2017-Nov-25 21:30N 01°06' E 103°33'611.1
2017-Nov-25 21:00N 01°10' E 103°36'611.2
2017-Nov-25 20:30N 01°10' E 103°42'1 2.3
2017-Nov-25 20:01N 01°11' E 103°43'0 0.0
2017-Nov-25 19:31N 01°11' E 103°43'0 0.0
2017-Nov-25 18:58N 01°11' E 103°43'0 0.0
2017-Nov-25 18:29N 01°11' E 103°43'0 0.0
2017-Nov-25 17:59N 01°11' E 103°43'0 0.0
2017-Nov-25 17:27N 01°11' E 103°43'0 0.0
2017-Nov-25 16:57N 01°11' E 103°43'0 0.0
2017-Nov-25 16:30N 01°11' E 103°43'0 0.1
2017-Nov-25 16:00N 01°11' E 103°43'0 0.0
2017-Nov-25 15:06N 01°11' E 103°43'0 0.0
2017-Nov-25 14:54N 01°11' E 103°43'0 0.0
2017-Nov-25 14:30N 01°11' E 103°43'0 0.0
2017-Nov-25 13:51N 01°11' E 103°43'0 0.0
2017-Nov-25 13:30N 01°11' E 103°43'0 0.1
2017-Nov-25 13:00N 01°11' E 103°43'0 0.0
2017-Nov-25 12:30N 01°11' E 103°43'0 0.0
2017-Nov-25 11:57N 01°11' E 103°43'0 0.1
2017-Nov-25 11:30N 01°11' E 103°43'0 0.1
2017-Nov-25 10:57N 01°11' E 103°43'0 0.1
2017-Nov-25 10:24N 01°11' E 103°43'0 0.0
2017-Nov-25 10:00N 01°11' E 103°43'0 0.1
2017-Nov-25 09:27N 01°11' E 103°43'0 0.1
2017-Nov-25 08:57N 01°11' E 103°43'0 0.1
2017-Nov-25 08:30N 01°11' E 103°43'4 7.3
2017-Nov-25 08:00N 01°12' E 103°39'3 5.7
2017-Nov-25 07:30N 01°12' E 103°36'2 4.7
2017-Nov-25 07:01N 01°10' E 103°34'2 2.5
2017-Nov-25 06:24N 01°09' E 103°35'0 0.1
2017-Nov-25 05:57N 01°09' E 103°35'0 0.3
2017-Nov-25 05:30N 01°09' E 103°35'0 0.1
2017-Nov-25 05:00N 01°09' E 103°35'0 0.1
2017-Nov-25 04:30N 01°09' E 103°35'0 0.0
2017-Nov-25 03:51N 01°09' E 103°35'0 0.0
2017-Nov-25 03:18N 01°09' E 103°35'0 0.1
2017-Nov-25 02:57N 01°09' E 103°35'0 0.0
2017-Nov-25 02:27N 01°09' E 103°35'0 0.1
2017-Nov-25 01:54N 01°09' E 103°35'0 0.0
2017-Nov-25 01:27N 01°09' E 103°35'0 0.0
2017-Nov-25 00:54N 01°09' E 103°35'0 0.0
2017-Nov-25 00:24N 01°09' E 103°35'0 0.0
2017-Nov-25 00:00N 01°09' E 103°35'0 0.0
2017-Nov-24 23:15N 01°09' E 103°35'0 0.1
2017-Nov-24 22:51N 01°09' E 103°35'0 0.0
2017-Nov-24 22:30N 01°09' E 103°35'0 0.1
2017-Nov-24 22:00N 01°09' E 103°35'0 0.0
2017-Nov-24 21:30N 01°09' E 103°35'0 0.1
2017-Nov-24 20:51N 01°09' E 103°35'0 0.0
2017-Nov-24 20:30N 01°09' E 103°35'0 0.1
2017-Nov-24 19:48N 01°09' E 103°35'0 0.0
2017-Nov-24 19:21N 01°09' E 103°35'0 0.0
2017-Nov-24 18:54N 01°09' E 103°35'0 0.0
2017-Nov-24 18:30N 01°09' E 103°35'0 0.1
2017-Nov-24 17:57N 01°09' E 103°35'0 0.1
2017-Nov-24 17:21N 01°09' E 103°35'0 0.1
2017-Nov-24 16:42N 01°09' E 103°35'0 0.2
2017-Nov-24 16:18N 01°09' E 103°35'0 0.1
2017-Nov-24 16:00N 01°09' E 103°35'0 0.1
2017-Nov-24 15:30N 01°09' E 103°35'0 0.1
2017-Nov-24 15:00N 01°09' E 103°35'0 0.0
2017-Nov-24 14:30N 01°09' E 103°35'0 0.0
2017-Nov-24 13:57N 01°09' E 103°35'0 0.0
2017-Nov-24 13:24N 01°09' E 103°35'0 0.0
2017-Nov-24 12:39N 01°09' E 103°35'0 0.0
2017-Nov-24 12:30N 01°09' E 103°35'0 0.0
2017-Nov-24 11:57N 01°09' E 103°35'0 0.2
2017-Nov-24 11:30N 01°09' E 103°35'2 3.3
2017-Nov-24 11:01N 01°10' E 103°34'2 4.2
2017-Nov-24 10:31N 01°09' E 103°32'5 9.2
2017-Nov-24 10:00N 01°09' E 103°27'611.2
2017-Nov-24 09:30N 01°12' E 103°23'612.7
2017-Nov-24 09:00N 01°17' E 103°18'  

Dump ship's entire track history